Time;durP1;ratioP1;P1;durP2;ratioP2;P2;SDS_P1;SDS_P2;PMS_P1;PMS_P2;Temp;Humidity;BMP_temperature;BMP_pressure;BME280_temperature;BME280_humidity;BME280_pressure;Samples;Min_cycle;Max_cycle;Signal;HPM_P1;HPM_P2
2021/06/28 00:00:13;;;;;;;3.47;3.20;;;;;;;17.02;89.67;99070.59;2002206;81;20281;-77
2021/06/28 00:03:15;;;;;;;3.60;3.30;;;;;;;16.99;89.64;99081.22;2007854;78;20223;-77
2021/06/28 00:06:18;;;;;;;3.10;2.96;;;;;;;16.96;89.51;99084.81;2007468;80;20513;-77
2021/06/28 00:09:21;;;;;;;4.16;3.10;;;;;;;16.91;89.18;99073.63;2007606;80;20188;-77
2021/06/28 00:12:23;;;;;;;5.03;3.40;;;;;;;16.86;88.89;99073.75;2008202;80;20173;-77
2021/06/28 00:15:30;;;;;;;3.17;2.97;;;;;;;16.81;88.72;99075.69;2005825;79;25854;-77
2021/06/28 00:18:34;;;;;;;4.88;3.04;;;;;;;16.77;88.99;99083.72;2002267;81;20290;-77
2021/06/28 00:21:38;;;;;;;6.13;3.80;;;;;;;16.74;88.86;99078.59;2001661;81;20233;-77
2021/06/28 00:24:41;;;;;;;3.40;3.13;;;;;;;16.71;88.95;99084.81;2002392;80;20166;-77
2021/06/28 00:27:44;;;;;;;4.84;3.67;;;;;;;16.71;89.27;99094.44;2001924;81;20170;-77
2021/06/28 00:31:03;;;;;;;6.22;3.53;;;;;;;16.71;89.48;99091.81;2002320;80;22639;-77
2021/06/28 00:34:09;;;;;;;3.79;3.49;;;;;;;16.70;89.62;99093.59;2007818;80;20184;-77
2021/06/28 00:37:12;;;;;;;3.60;3.15;;;;;;;16.72;89.92;99101.41;2007465;80;20161;-77
2021/06/28 00:40:17;;;;;;;5.85;3.64;;;;;;;16.73;90.45;99090.00;2007616;80;20254;-76
2021/06/28 00:43:20;;;;;;;5.36;3.66;;;;;;;16.76;90.54;99090.75;2008514;80;20206;-77
2021/06/28 00:46:22;;;;;;;3.88;3.58;;;;;;;16.81;90.51;99082.72;2005904;78;54825;-77
2021/06/28 00:49:25;;;;;;;5.95;3.58;;;;;;;16.80;90.52;99087.09;2007972;80;20254;-77
2021/06/28 00:52:28;;;;;;;4.64;3.60;;;;;;;16.80;90.87;99089.72;2007098;80;20631;-77
2021/06/28 00:55:31;;;;;;;5.68;3.33;;;;;;;16.84;90.84;99088.69;2007007;80;20215;-77
2021/06/28 00:58:37;;;;;;;4.11;3.71;;;;;;;16.83;90.71;99100.09;2007761;80;20216;-76
2021/06/28 01:01:40;;;;;;;4.01;3.33;;;;;;;16.80;90.72;99096.72;2006655;78;20801;-76
2021/06/28 01:04:43;;;;;;;3.54;3.24;;;;;;;16.81;90.88;99088.81;2008217;80;20169;-76
2021/06/28 01:07:46;;;;;;;3.54;3.29;;;;;;;16.80;90.90;99088.88;2006808;80;20744;-76
2021/06/28 01:10:49;;;;;;;4.97;4.16;;;;;;;16.81;90.87;99082.72;2006973;80;20203;-77
2021/06/28 01:13:52;;;;;;;4.90;3.15;;;;;;;16.84;90.78;99086.06;2006903;80;20177;-77
2021/06/28 01:16:56;;;;;;;4.56;3.34;;;;;;;16.83;90.73;99076.50;2006822;78;20184;-77
2021/06/28 01:20:09;;;;;;;4.95;3.49;;;;;;;16.81;90.58;99074.84;2007650;80;20634;-76
2021/06/28 01:23:23;;;;;;;5.07;4.21;;;;;;;16.81;90.81;99082.72;2007191;80;20184;-77
2021/06/28 01:26:26;;;;;;;6.35;3.39;;;;;;;16.85;91.01;99079.06;2007551;80;20188;-77
2021/06/28 01:29:28;;;;;;;3.60;3.30;;;;;;;16.87;90.94;99077.25;2007711;80;20161;-77
2021/06/28 01:32:31;;;;;;;3.45;3.25;;;;;;;16.87;90.92;99064.13;2006604;78;24330;-77
2021/06/28 01:35:37;;;;;;;3.80;3.50;;;;;;;16.90;91.06;99062.28;2007377;80;20222;-77
2021/06/28 01:38:40;;;;;;;6.82;3.59;;;;;;;16.94;91.08;99060.41;2007343;80;20205;-77
2021/06/28 01:41:42;;;;;;;4.81;3.60;;;;;;;16.96;90.97;99079.56;2007497;80;20173;-77
2021/06/28 01:44:45;;;;;;;5.69;3.58;;;;;;;16.96;91.30;99079.56;2007811;80;20270;-77
2021/06/28 01:47:49;;;;;;;5.07;4.24;;;;;;;16.96;91.16;99078.69;2006768;78;23218;-77
2021/06/28 01:50:52;;;;;;;4.10;3.78;;;;;;;16.95;91.40;99077.00;2007638;80;20256;-76
2021/06/28 01:53:55;;;;;;;4.66;4.04;;;;;;;16.92;91.58;99081.44;2007899;80;20173;-76
2021/06/28 01:56:59;;;;;;;7.93;4.05;;;;;;;16.95;91.94;99079.63;2007375;80;20211;-77
2021/06/28 02:00:05;;;;;;;6.71;4.86;;;;;;;16.98;92.35;99074.25;2007103;80;20210;-77
2021/06/28 02:03:10;;;;;;;3.31;3.11;;;;;;;16.98;92.49;99059.38;2007409;78;23103;-77
2021/06/28 02:06:12;;;;;;;6.80;3.83;;;;;;;17.05;92.46;99067.88;2007236;80;20280;-77
2021/06/28 02:09:16;;;;;;;4.07;3.58;;;;;;;17.08;92.52;99075.66;2007369;80;20238;-76
2021/06/28 02:12:18;;;;;;;3.81;3.47;;;;;;;17.05;92.46;99070.47;2007103;80;21357;-76
2021/06/28 02:15:24;;;;;;;3.46;3.25;;;;;;;17.10;92.32;99069.44;2006221;78;23009;-76
2021/06/28 02:18:27;;;;;;;3.88;3.50;;;;;;;17.11;92.37;99068.53;2007415;80;20213;-76
2021/06/28 02:21:30;;;;;;;3.51;3.14;;;;;;;17.10;92.33;99063.31;2007565;80;20229;-77
2021/06/28 02:24:32;;;;;;;5.35;3.35;;;;;;;17.11;92.38;99068.53;2007162;80;20234;-76
2021/06/28 02:27:36;;;;;;;7.07;3.58;;;;;;;17.11;92.39;99065.03;2007401;80;20184;-77
2021/06/28 02:30:39;;;;;;;3.90;3.19;;;;;;;17.09;92.30;99059.00;2006686;78;20586;-76
2021/06/28 02:33:42;;;;;;;5.07;3.78;;;;;;;17.07;92.31;99055.56;2006934;80;20730;-76
2021/06/28 02:36:44;;;;;;;3.89;3.54;;;;;;;17.04;92.41;99048.66;2007242;80;20755;-76
2021/06/28 02:39:47;;;;;;;4.95;3.50;;;;;;;17.05;92.60;99052.13;2006994;80;20188;-76
2021/06/28 02:42:49;;;;;;;6.66;3.85;;;;;;;17.04;92.80;99053.88;2007391;80;20181;-76
2021/06/28 02:45:52;;;;;;;6.39;3.70;;;;;;;17.06;92.88;99046.84;2006406;78;21993;-76
2021/06/28 02:48:55;;;;;;;4.41;3.36;;;;;;;17.07;93.13;99030.19;2007214;80;20169;-77
2021/06/28 02:51:58;;;;;;;6.10;3.16;;;;;;;17.08;93.07;99034.53;2006541;80;20205;-76
2021/06/28 02:55:01;;;;;;;5.82;3.38;;;;;;;17.08;93.12;99020.56;2007366;80;20690;-76
2021/06/28 02:58:04;;;;;;;4.53;3.85;;;;;;;17.07;93.24;99024.09;2007145;80;20306;-76
2021/06/28 03:01:07;;;;;;;4.22;3.67;;;;;;;17.03;93.08;99035.59;2006080;78;22159;-76
2021/06/28 03:04:10;;;;;;;4.15;3.56;;;;;;;16.99;93.11;99032.22;2007476;80;20290;-76
2021/06/28 03:07:12;;;;;;;4.60;3.64;;;;;;;16.98;93.35;99040.16;2006523;80;20272;-76
2021/06/28 03:10:15;;;;;;;5.03;3.38;;;;;;;17.02;93.44;99044.38;2006184;80;20177;-76
2021/06/28 03:13:18;;;;;;;4.15;3.89;;;;;;;17.02;93.36;99039.13;2006174;80;20181;-76
2021/06/28 03:16:20;;;;;;;3.90;3.70;;;;;;;17.02;93.37;99047.84;2006542;78;22735;-76
2021/06/28 03:19:23;;;;;;;4.09;3.69;;;;;;;16.99;93.50;99047.09;2007291;80;20181;-76
2021/06/28 03:22:26;;;;;;;5.00;3.38;;;;;;;17.02;93.61;99054.88;2007143;80;20200;-76
2021/06/28 03:25:28;;;;;;;4.32;3.33;;;;;;;17.04;93.54;99060.91;2007245;80;21016;-76
2021/06/28 03:28:32;;;;;;;3.75;3.41;;;;;;;16.98;93.38;99051.50;2010982;80;20214;-76
2021/06/28 03:31:35;;;;;;;3.42;3.22;;;;;;;16.97;93.88;99046.31;2006647;80;20545;-76
2021/06/28 03:34:38;;;;;;;3.41;3.11;;;;;;;17.00;94.18;99033.09;2008665;80;20238;-76
2021/06/28 03:37:40;;;;;;;7.35;3.60;;;;;;;17.02;93.78;99034.72;2007349;80;20202;-76
2021/06/28 03:40:43;;;;;;;4.16;3.67;;;;;;;17.03;93.33;99033.81;2007388;80;20187;-76
2021/06/28 03:43:49;;;;;;;3.38;3.10;;;;;;;16.99;93.84;99054.97;2007246;80;20278;-76
2021/06/28 03:46:51;;;;;;;4.06;3.39;;;;;;;16.94;93.73;99057.78;2005846;78;21991;-76
2021/06/28 03:49:54;;;;;;;2.90;2.75;;;;;;;16.95;93.61;99054.25;2007697;80;20226;-76
2021/06/28 03:52:57;;;;;;;4.34;3.33;;;;;;;16.96;93.27;99048.06;2007016;80;20671;-75
2021/06/28 03:56:06;;;;;;;2.95;2.75;;;;;;;16.97;92.96;99046.31;2007967;80;20207;-76
2021/06/28 03:59:09;;;;;;;3.22;2.94;;;;;;;16.96;92.84;99057.72;2007523;80;20189;-76
2021/06/28 04:02:11;;;;;;;5.69;3.10;;;;;;;16.91;92.89;99071.00;2005809;78;20188;-76
2021/06/28 04:05:21;;;;;;;2.90;2.60;;;;;;;16.86;92.99;99065.03;2006545;80;20310;-77
2021/06/28 04:08:24;;;;;;;3.61;3.31;;;;;;;16.84;93.02;99065.09;2007805;80;20177;-76
2021/06/28 04:11:29;;;;;;;3.30;3.00;;;;;;;16.87;93.35;99072.84;2007260;80;21412;-76
2021/06/28 04:14:31;;;;;;;4.50;3.05;;;;;;;16.92;93.52;99070.94;2006908;80;20226;-76
2021/06/28 04:17:34;;;;;;;3.78;2.88;;;;;;;16.98;93.47;99075.09;2006425;78;20753;-76
2021/06/28 04:20:37;;;;;;;4.59;3.08;;;;;;;17.01;93.54;99069.75;2007078;80;20194;-76
2021/06/28 04:23:39;;;;;;;7.63;2.49;;;;;;;17.04;93.42;99069.63;2007049;80;20252;-76
2021/06/28 04:26:42;;;;;;;3.53;2.33;;;;;;;17.07;93.10;99077.41;2007857;80;20278;-76
2021/06/28 04:29:45;;;;;;;6.06;2.78;;;;;;;17.07;92.81;99082.66;2007555;80;20250;-76
2021/06/28 04:32:49;;;;;;;3.97;2.90;;;;;;;17.10;92.81;99074.69;2007035;78;20270;-76
2021/06/28 04:35:52;;;;;;;3.39;2.59;;;;;;;17.16;92.75;99074.44;2007685;80;20237;-76
2021/06/28 04:38:54;;;;;;;3.51;3.00;;;;;;;17.25;92.71;99062.78;2007611;80;20190;-76
2021/06/28 04:41:57;;;;;;;3.01;2.45;;;;;;;17.36;92.61;99067.59;2006084;80;20271;-76
2021/06/28 04:44:59;;;;;;;3.09;2.65;;;;;;;17.46;92.80;99076.88;2008069;80;20271;-76
2021/06/28 04:48:02;;;;;;;4.72;2.36;;;;;;;17.57;92.98;99079.94;2001674;78;20889;-76
2021/06/28 04:51:05;;;;;;;4.56;2.50;;;;;;;17.70;93.10;99077.72;2003488;81;20162;-75
2021/06/28 04:54:08;;;;;;;2.46;2.30;;;;;;;17.83;93.03;99083.38;2002683;80;20170;-76
2021/06/28 04:57:13;;;;;;;2.60;2.40;;;;;;;17.97;92.71;99084.56;2002277;81;20332;-75
2021/06/28 05:00:18;;;;;;;3.69;3.16;;;;;;;18.07;92.34;99100.78;2002168;81;20186;-76
2021/06/28 05:03:21;;;;;;;2.96;2.56;;;;;;;18.10;92.09;99104.16;2002131;80;23789;-75
2021/06/28 05:06:23;;;;;;;4.57;2.10;;;;;;;18.15;92.10;99117.13;2001764;81;20216;-76
2021/06/28 05:09:26;;;;;;;3.35;2.22;;;;;;;18.20;92.08;99106.44;2002528;81;20223;-76
2021/06/28 05:12:29;;;;;;;2.55;2.35;;;;;;;18.28;91.75;99105.19;1998334;81;20215;-76
2021/06/28 05:15:31;;;;;;;2.09;1.99;;;;;;;18.40;91.68;99093.34;2002710;78;21721;-76
2021/06/28 05:18:35;;;;;;;3.00;2.66;;;;;;;18.52;91.33;99092.84;2007396;80;20195;-76
2021/06/28 05:21:38;;;;;;;3.44;2.50;;;;;;;18.63;91.21;99097.66;2008288;80;20199;-76
2021/06/28 05:24:40;;;;;;;3.13;2.86;;;;;;;18.75;90.58;99085.78;2007162;80;20722;-75
2021/06/28 05:27:43;;;;;;;6.40;2.59;;;;;;;18.85;90.06;99085.34;2007960;80;20218;-76
2021/06/28 05:30:45;;;;;;;2.72;2.28;;;;;;;18.95;90.11;99059.47;2005495;78;42139;-75
2021/06/28 05:33:48;;;;;;;3.30;2.75;;;;;;;19.05;90.07;99041.50;2112225;69;20199;-75
2021/06/28 05:36:51;;;;;;;5.25;3.29;;;;;;;19.14;89.79;99036.69;2022066;80;20190;-76
2021/06/28 05:39:54;;;;;;;5.74;2.92;;;;;;;19.17;88.95;99030.41;2022434;80;20191;-75
2021/06/28 05:42:56;;;;;;;7.86;2.95;;;;;;;19.22;88.52;99038.97;2022975;79;20175;-76
2021/06/28 05:45:59;;;;;;;4.94;2.69;;;;;;;19.27;87.90;99044.88;2021279;77;21274;-76
2021/06/28 05:49:02;;;;;;;6.54;3.00;;;;;;;19.27;87.19;99039.63;2022141;80;20657;-75
2021/06/28 05:52:05;;;;;;;3.96;2.58;;;;;;;19.31;87.26;99036.75;2022171;80;20193;-75
2021/06/28 05:55:08;;;;;;;3.00;2.78;;;;;;;19.39;87.09;99032.91;2022837;80;20333;-75
2021/06/28 05:58:12;;;;;;;2.63;2.42;;;;;;;19.52;86.66;99032.28;2022999;80;20812;-75
2021/06/28 06:01:16;;;;;;;2.80;2.63;;;;;;;19.71;86.22;99031.47;2023949;77;20196;-75
2021/06/28 06:04:19;;;;;;;2.96;2.35;;;;;;;19.86;85.47;99020.19;2028279;79;20190;-76
2021/06/28 06:07:21;;;;;;;3.60;2.99;;;;;;;20.05;84.92;99023.63;2028302;79;20199;-75
2021/06/28 06:10:24;;;;;;;3.79;2.16;;;;;;;20.37;84.07;99031.75;2028000;79;20170;-75
2021/06/28 06:13:27;;;;;;;6.96;2.46;;;;;;;20.70;82.07;99045.91;2027960;79;20254;-76
2021/06/28 06:16:30;;;;;;;7.34;2.50;;;;;;;20.64;81.17;99050.63;2024167;78;20204;-74
2021/06/28 06:19:32;;;;;;;4.80;2.40;;;;;;;20.51;81.59;99043.34;2022427;80;20222;-73
2021/06/28 06:22:35;;;;;;;5.05;2.16;;;;;;;20.47;81.95;99044.44;2022116;80;20215;-74
2021/06/28 06:25:39;;;;;;;3.71;2.04;;;;;;;20.55;82.74;99043.19;2022457;80;20175;-75
2021/06/28 06:28:42;;;;;;;6.74;2.33;;;;;;;20.59;81.62;99032.41;2022544;80;20187;-75
2021/06/28 06:31:45;;;;;;;5.47;2.14;;;;;;;20.72;80.82;99032.63;2021348;77;22196;-75
2021/06/28 06:34:48;;;;;;;2.86;2.13;;;;;;;21.05;79.16;99038.78;2029265;79;20296;-77
2021/06/28 06:37:53;;;;;;;5.91;2.15;;;;;;;21.44;77.95;99042.06;2027057;80;20194;-74
2021/06/28 06:40:56;;;;;;;5.60;1.95;;;;;;;21.32;77.08;99062.91;2027406;80;20188;-74
2021/06/28 06:43:59;;;;;;;5.34;2.09;;;;;;;21.18;77.01;99067.16;2027072;80;20218;-72
2021/06/28 06:47:02;;;;;;;3.25;1.88;;;;;;;21.11;78.40;99070.16;2022680;77;22159;-77
2021/06/28 06:50:05;;;;;;;3.15;1.98;;;;;;;21.09;78.37;99076.44;2022982;80;20192;-74
2021/06/28 06:53:08;;;;;;;2.22;2.03;;;;;;;21.06;78.46;99072.19;2022805;80;20257;-75
2021/06/28 06:56:11;;;;;;;5.96;2.47;;;;;;;21.00;78.61;99075.13;2023178;80;20194;-74
2021/06/28 06:59:13;;;;;;;7.41;2.28;;;;;;;20.93;79.39;99083.44;2026590;80;20716;-75
2021/06/28 07:02:16;;;;;;;2.47;2.08;;;;;;;20.90;79.93;99094.16;2025476;77;20554;-75
2021/06/28 07:05:19;;;;;;;3.45;1.94;;;;;;;20.90;79.98;99094.16;2027783;79;20559;-75
2021/06/28 07:08:22;;;;;;;3.26;2.11;;;;;;;20.93;81.04;99108.06;2028694;79;20705;-74
2021/06/28 07:11:25;;;;;;;1.99;1.89;;;;;;;21.02;81.51;99112.03;2027916;79;20800;-72
2021/06/28 07:14:28;;;;;;;4.01;2.24;;;;;;;21.06;81.75;99137.34;2028902;79;20677;-78
2021/06/28 07:17:30;;;;;;;2.38;2.04;;;;;;;21.08;81.72;99161.88;2027671;77;23855;-79
2021/06/28 07:20:33;;;;;;;2.44;2.09;;;;;;;20.94;80.30;99159.06;2027315;80;20815;-78
2021/06/28 07:23:38;;;;;;;4.07;1.88;;;;;;;20.87;80.64;99165.59;2027821;80;20400;-79
2021/06/28 07:26:42;;;;;;;2.91;2.22;;;;;;;20.94;81.08;99166.97;2026730;80;20236;-79
2021/06/28 07:29:44;;;;;;;1.90;1.80;;;;;;;21.11;81.60;99178.41;2025232;80;20687;-79
2021/06/28 07:32:50;;;;;;;4.75;2.05;;;;;;;21.21;79.91;99188.50;2029311;78;20865;-79
2021/06/28 07:35:54;;;;;;;2.55;2.19;;;;;;;21.31;79.99;99190.63;2030944;79;20272;-79
2021/06/28 07:39:02;;;;;;;2.28;2.08;;;;;;;21.39;78.51;99200.81;2031847;79;20448;-78
2021/06/28 07:42:05;;;;;;;4.76;2.08;;;;;;;21.48;77.92;99202.09;2029642;79;20232;-76
2021/06/28 07:45:08;;;;;;;5.14;1.88;;;;;;;21.61;77.48;99200.53;2028461;79;20170;-78
2021/06/28 07:48:11;;;;;;;3.95;2.05;;;;;;;21.83;76.88;99216.97;2025785;78;23234;-78
2021/06/28 07:51:13;;;;;;;3.31;1.92;;;;;;;22.03;77.11;99210.59;2026159;80;20413;-79
2021/06/28 07:54:17;;;;;;;5.35;2.00;;;;;;;22.15;76.72;99204.69;2026857;80;20179;-80
2021/06/28 07:57:20;;;;;;;1.76;1.65;;;;;;;22.14;75.80;99189.75;2027353;80;20535;-79
2021/06/28 08:00:23;;;;;;;6.65;2.11;;;;;;;22.12;75.65;99186.34;2025588;79;20179;-79
2021/06/28 08:03:26;;;;;;;4.94;1.75;;;;;;;22.18;75.65;99198.38;2030800;79;20175;-72
2021/06/28 08:06:28;;;;;;;2.66;1.49;;;;;;;22.26;75.48;99197.03;2027735;79;20217;-72
2021/06/28 08:09:31;;;;;;;2.88;1.76;;;;;;;22.43;75.07;99189.91;2027568;79;20220;-72
2021/06/28 08:12:33;;;;;;;2.42;1.59;;;;;;;22.57;73.93;99190.00;2027083;79;20215;-72
2021/06/28 08:15:36;;;;;;;2.49;1.89;;;;;;;22.73;73.49;99177.59;2026401;77;20343;-73
2021/06/28 08:18:42;;;;;;;4.79;1.60;;;;;;;22.96;72.55;99170.13;2025645;80;20155;-74
2021/06/28 08:22:05;;;;;;;2.83;1.56;;;;;;;23.16;72.06;99167.16;2021738;80;20297;-73
2021/06/28 08:25:08;;;;;;;3.75;1.69;;;;;;;23.42;70.82;99176.22;2022821;80;20179;-73
2021/06/28 08:28:12;;;;;;;2.96;1.35;;;;;;;23.42;69.20;99170.91;2022176;80;20163;-73
2021/06/28 08:31:14;;;;;;;1.67;1.50;;;;;;;23.62;69.91;99172.38;2024095;77;20664;-73
2021/06/28 08:34:37;;;;;;;5.41;1.48;;;;;;;24.01;69.53;99161.94;2030773;79;20296;-73
2021/06/28 08:37:43;;;;;;;2.80;1.25;;;;;;;24.47;67.95;99158.19;2026958;79;20182;-72
2021/06/28 08:40:48;;;;;;;2.92;1.36;;;;;;;24.67;65.76;99149.78;2027210;79;20190;-73
2021/06/28 08:43:51;;;;;;;2.71;1.33;;;;;;;24.85;65.49;99129.09;2027660;79;20853;-73
2021/06/28 08:46:53;;;;;;;2.86;1.27;;;;;;;25.21;64.36;99128.44;2023313;77;20313;-73
2021/06/28 08:49:57;;;;;;;3.61;1.05;;;;;;;25.76;63.42;99122.81;2022731;80;20174;-73
2021/06/28 08:53:01;;;;;;;1.89;1.16;;;;;;;26.32;62.34;99133.84;2022419;80;20615;-73
2021/06/28 08:56:08;;;;;;;2.34;1.05;;;;;;;26.60;59.63;99131.84;2022575;80;20296;-73
2021/06/28 08:59:11;;;;;;;2.41;1.10;;;;;;;26.69;58.01;99133.81;2022146;80;20163;-73
2021/06/28 09:02:13;;;;;;;1.74;1.13;;;;;;;26.85;57.29;99134.34;2026173;78;20742;-73
2021/06/28 09:05:16;;;;;;;1.55;0.90;;;;;;;27.02;57.67;99141.09;2027205;79;20202;-73
2021/06/28 09:08:20;;;;;;;2.55;0.84;;;;;;;26.78;57.06;99139.31;2028254;79;20202;-73
2021/06/28 09:11:24;;;;;;;1.74;0.96;;;;;;;26.43;57.20;99141.94;2027416;79;20163;-73
2021/06/28 09:14:26;;;;;;;1.13;0.82;;;;;;;26.31;57.81;99132.13;2028246;79;20178;-73
2021/06/28 09:17:33;;;;;;;1.44;1.10;;;;;;;26.37;57.63;99128.19;2022506;77;22323;-73
2021/06/28 09:20:36;;;;;;;2.80;0.82;;;;;;;26.47;58.16;99132.75;2022546;80;20194;-73
2021/06/28 09:23:40;;;;;;;1.34;0.91;;;;;;;26.62;57.87;99127.25;2021187;80;20391;-72
2021/06/28 09:26:43;;;;;;;1.79;0.90;;;;;;;26.42;55.91;99137.56;2022650;80;21047;-73
2021/06/28 09:29:54;;;;;;;2.72;0.94;;;;;;;26.67;56.41;99138.41;2021671;80;20167;-73
2021/06/28 09:33:01;;;;;;;3.41;0.75;;;;;;;27.06;56.23;99135.41;2026339;77;22879;-73
2021/06/28 09:36:23;;;;;;;3.11;1.10;;;;;;;27.11;54.59;99135.09;2026973;79;20182;-73
2021/06/28 09:39:28;;;;;;;2.71;0.84;;;;;;;26.63;53.68;99135.13;2028351;79;20175;-73
2021/06/28 09:42:31;;;;;;;4.72;0.91;;;;;;;26.43;56.61;99136.59;2027483;79;20188;-73
2021/06/28 09:45:40;;;;;;;1.45;0.90;;;;;;;26.36;56.40;99135.34;2024514;77;23907;-75
2021/06/28 09:48:50;;;;;;;1.38;0.77;;;;;;;26.27;54.67;99122.69;2023012;80;20201;-73
2021/06/28 09:51:53;;;;;;;1.09;0.90;;;;;;;26.50;56.77;99118.34;2022185;80;20170;-73
2021/06/28 09:55:10;;;;;;;1.29;1.00;;;;;;;26.88;57.01;99122.63;2021371;80;20212;-73
2021/06/28 09:58:26;;;;;;;2.38;0.90;;;;;;;27.26;55.69;99128.56;2022632;80;20992;-73
2021/06/28 10:01:29;;;;;;;3.69;0.95;;;;;;;27.48;52.91;99135.75;2021357;77;20229;-73
2021/06/28 10:04:40;;;;;;;3.54;0.75;;;;;;;27.71;51.17;99127.78;2022543;80;20212;-72
2021/06/28 10:07:43;;;;;;;0.96;0.82;;;;;;;28.00;51.32;99124.47;2020842;80;20225;-73
2021/06/28 10:10:46;;;;;;;1.64;0.65;;;;;;;28.13;49.45;99131.50;2021710;80;20155;-72
2021/06/28 10:13:55;;;;;;;0.76;0.70;;;;;;;28.02;49.92;99121.72;2022784;80;20191;-73
2021/06/28 10:16:57;;;;;;;0.94;0.80;;;;;;;27.85;51.05;99116.88;2026002;77;23649;-74
2021/06/28 10:20:00;;;;;;;2.08;0.90;;;;;;;27.77;51.73;99120.13;2027210;79;20262;-73
2021/06/28 10:23:05;;;;;;;1.41;0.77;;;;;;;27.94;51.63;99127.66;2027687;79;20222;-74
2021/06/28 10:26:08;;;;;;;1.69;0.71;;;;;;;28.15;51.09;99119.72;2028137;79;20219;-73
2021/06/28 10:29:11;;;;;;;0.71;0.71;;;;;;;28.28;49.94;99115.13;2028643;79;21018;-73
2021/06/28 10:32:14;;;;;;;1.21;0.70;;;;;;;28.19;49.14;99115.84;2022664;78;20159;-73
2021/06/28 10:35:26;;;;;;;1.98;0.82;;;;;;;28.19;50.74;99107.00;2021613;80;20178;-74
2021/06/28 10:38:48;;;;;;;1.74;0.76;;;;;;;28.03;49.39;99117.22;2022481;80;20199;-73
2021/06/28 10:41:53;;;;;;;2.03;0.79;;;;;;;27.70;49.60;99118.94;2022713;80;20183;-73
2021/06/28 10:44:56;;;;;;;2.89;0.90;;;;;;;27.99;50.58;99120.09;2023715;80;20867;-70
2021/06/28 10:48:13;;;;;;;4.00;0.86;;;;;;;28.53;50.41;99103.25;2021391;77;20581;-72
2021/06/28 10:51:19;;;;;;;1.10;0.91;;;;;;;28.92;50.09;99102.78;2022763;80;20171;-71
2021/06/28 10:54:33;;;;;;;2.09;0.80;;;;;;;29.14;47.94;99106.16;2018068;80;20479;-72
2021/06/28 10:57:40;;;;;;;4.70;0.60;;;;;;;29.02;47.15;99106.34;2022063;80;20282;-71
2021/06/28 11:00:50;;;;;;;3.19;0.71;;;;;;;29.18;49.27;99106.72;2021589;78;20961;-72
2021/06/28 11:04:23;;;;;;;2.11;0.70;;;;;;;29.43;47.90;99103.63;2022362;80;20180;-71
2021/06/28 11:07:39;;;;;;;0.98;0.75;;;;;;;29.61;47.64;99105.72;2022507;80;20750;-71
2021/06/28 11:10:42;;;;;;;2.49;0.90;;;;;;;29.68;47.03;99096.19;2022230;80;20552;-71
2021/06/28 11:13:54;;;;;;;1.50;0.66;;;;;;;29.88;46.64;99105.97;2025585;79;20195;-73
2021/06/28 11:17:08;;;;;;;2.83;0.70;;;;;;;30.00;45.71;99107.56;2022672;80;20758;-74
2021/06/28 11:20:32;;;;;;;3.30;0.70;;;;;;;30.17;45.04;99107.91;2022639;80;20232;-74
2021/06/28 11:23:57;;;;;;;0.61;0.61;;;;;;;30.04;45.06;99116.19;2022357;80;20175;-75
2021/06/28 11:27:21;;;;;;;3.17;0.60;;;;;;;29.89;45.58;99115.69;2022318;80;20199;-75
2021/06/28 11:30:30;;;;;;;2.51;0.66;;;;;;;29.60;45.61;99114.72;2021848;80;20652;-75
2021/06/28 11:33:42;;;;;;;0.74;0.70;;;;;;;29.32;44.24;99118.94;2022784;80;20204;-74
2021/06/28 11:36:45;;;;;;;0.59;0.59;;;;;;;28.93;46.04;99129.38;2026827;79;20170;-74
2021/06/28 11:39:55;;;;;;;2.74;0.60;;;;;;;28.79;47.62;99132.31;2027744;79;20198;-75
2021/06/28 11:43:02;;;;;;;0.96;0.84;;;;;;;28.81;48.23;99136.56;2027731;79;20977;-75
2021/06/28 11:46:07;;;;;;;1.55;0.60;;;;;;;28.58;48.03;99127.78;2024748;77;22020;-76
2021/06/28 11:49:12;;;;;;;1.46;0.69;;;;;;;28.27;49.56;99125.94;2022627;80;20164;-75
2021/06/28 11:52:16;;;;;;;1.98;0.69;;;;;;;28.48;50.39;99116.16;2022784;80;20204;-74
2021/06/28 11:55:18;;;;;;;1.14;0.61;;;;;;;28.70;49.85;99125.06;2022556;80;20195;-75
2021/06/28 11:58:24;;;;;;;2.42;0.60;;;;;;;29.01;49.17;99115.34;2022446;80;21045;-75
2021/06/28 12:01:48;;;;;;;3.13;0.70;;;;;;;29.17;48.27;99113.06;2023517;78;20934;-75
2021/06/28 12:04:59;;;;;;;2.10;0.60;;;;;;;28.91;47.71;99104.59;2027694;79;20315;-74
2021/06/28 12:08:02;;;;;;;1.34;0.70;;;;;;;28.34;48.78;99095.06;2027510;79;20192;-74
2021/06/28 12:11:05;;;;;;;1.17;0.70;;;;;;;28.09;49.76;99114.03;2028163;79;20203;-74
2021/06/28 12:14:08;;;;;;;3.03;0.69;;;;;;;27.87;50.79;99113.09;2028686;79;20204;-75
2021/06/28 12:17:24;;;;;;;1.96;0.70;;;;;;;27.66;51.77;99123.69;2023566;79;20847;-76
2021/06/28 12:20:29;;;;;;;2.35;0.88;;;;;;;27.64;51.45;99114.91;2022052;80;20215;-75
2021/06/28 12:23:36;;;;;;;2.42;0.70;;;;;;;27.76;52.42;99120.25;2022765;80;20205;-75
2021/06/28 12:26:40;;;;;;;0.93;0.71;;;;;;;27.91;51.60;99129.72;2022140;80;21065;-75
2021/06/28 12:29:48;;;;;;;3.55;0.98;;;;;;;27.86;51.57;99123.91;2022534;80;20366;-75
2021/06/28 12:32:56;;;;;;;2.28;0.90;;;;;;;27.67;51.47;99125.38;2027462;77;20701;-74
2021/06/28 12:35:59;;;;;;;1.15;0.90;;;;;;;27.41;52.54;99123.84;2028205;79;20709;-76
2021/06/28 12:39:02;;;;;;;2.69;1.00;;;;;;;27.30;53.47;99132.72;2027649;79;20998;-75
2021/06/28 12:42:20;;;;;;;1.59;0.82;;;;;;;27.21;53.77;99128.06;2027586;79;20159;-75
2021/06/28 12:45:24;;;;;;;;;;;;;;;26.96;54.17;99137.06;2027147;79;20170;-74
2021/06/28 12:48:28;;;;;;;2.44;0.95;;;;;;;26.94;55.82;99140.81;2023883;80;20092;-74
2021/06/28 12:51:31;;;;;;;1.29;0.90;;;;;;;26.78;54.93;99139.31;2022249;80;20179;-75
2021/06/28 12:54:33;;;;;;;1.27;0.84;;;;;;;26.70;56.54;99135.50;2025745;80;20170;-76
2021/06/28 12:57:39;;;;;;;4.45;1.21;;;;;;;26.70;56.95;99135.50;2022435;80;20225;-74
2021/06/28 13:00:49;;;;;;;2.88;1.08;;;;;;;26.79;56.63;99124.16;2022554;77;21839;-75
2021/06/28 13:03:51;;;;;;;1.09;0.96;;;;;;;26.76;56.16;99127.06;2023120;80;20183;-75
2021/06/28 13:06:58;;;;;;;2.72;0.99;;;;;;;26.61;55.56;99129.06;2022256;80;20195;-75
2021/06/28 13:10:04;;;;;;;3.90;1.00;;;;;;;26.54;56.61;99125.13;2021957;80;20179;-74
2021/06/28 13:13:22;;;;;;;1.67;0.98;;;;;;;26.52;57.27;99115.56;2022242;80;20187;-74
2021/06/28 13:19:32;;;;;;;1.34;1.00;;;;;;;26.40;57.89;99118.19;2028004;79;20564;-75
2021/06/28 13:22:42;;;;;;;1.84;0.85;;;;;;;26.29;59.16;99117.25;2027282;79;20158;-74
2021/06/28 13:25:44;;;;;;;1.06;0.84;;;;;;;26.17;57.76;99135.78;2027364;79;20170;-73
2021/06/28 13:28:55;;;;;;;1.17;0.85;;;;;;;26.03;58.91;99135.09;2026874;79;20235;-74
2021/06/28 13:32:03;;;;;;;3.90;0.80;;;;;;;25.69;59.12;99132.19;2026778;77;22631;-74
2021/06/28 13:35:06;;;;;;;0.94;0.89;;;;;;;25.44;59.99;99122.38;2027660;79;20229;-72
2021/06/28 13:38:11;;;;;;;2.78;1.00;;;;;;;25.23;60.95;99126.53;2026954;79;20174;-72
2021/06/28 13:41:19;;;;;;;2.92;1.10;;;;;;;25.13;61.52;99128.09;2027025;79;20171;-72
2021/06/28 13:44:21;;;;;;;2.24;0.88;;;;;;;25.15;61.68;99142.16;2027184;79;20890;-73
2021/06/28 13:47:25;;;;;;;1.80;1.00;;;;;;;25.30;61.99;99138.44;2022112;77;20236;-73
2021/06/28 13:50:33;;;;;;;2.20;0.95;;;;;;;25.58;62.03;99132.06;2021995;80;20183;-73
2021/06/28 13:53:37;;;;;;;1.29;0.90;;;;;;;25.81;61.12;99127.78;2021928;80;20604;-74
2021/06/28 13:56:39;;;;;;;1.74;0.80;;;;;;;25.98;58.28;99121.28;2022419;80;20205;-73
2021/06/28 13:59:42;;;;;;;1.46;0.70;;;;;;;26.07;57.59;99113.50;2021604;80;20669;-73
2021/06/28 14:02:44;;;;;;;1.19;0.80;;;;;;;26.23;57.06;99133.66;2025204;77;20220;-73
2021/06/28 14:05:48;;;;;;;0.80;0.69;;;;;;;26.33;56.03;99129.34;2027817;79;20217;-73
2021/06/28 14:08:50;;;;;;;1.08;0.70;;;;;;;26.28;54.88;99132.38;2027439;79;20812;-73
2021/06/28 14:11:53;;;;;;;0.60;0.56;;;;;;;26.38;55.95;99127.22;2027441;79;20749;-74
2021/06/28 14:14:55;;;;;;;2.24;0.73;;;;;;;26.43;55.96;99127.75;2027201;79;20192;-73
2021/06/28 14:17:58;;;;;;;0.80;0.61;;;;;;;26.37;55.31;99121.06;2026809;77;20454;-73
2021/06/28 14:21:01;;;;;;;1.30;0.80;;;;;;;26.38;55.20;99120.09;2027135;79;20178;-74
2021/06/28 14:24:05;;;;;;;1.81;0.68;;;;;;;26.55;56.42;99134.81;2026672;79;20162;-75
2021/06/28 14:27:08;;;;;;;1.36;0.88;;;;;;;26.64;54.29;99125.31;2027478;80;20186;-73
2021/06/28 14:30:13;;;;;;;0.89;0.70;;;;;;;26.79;54.70;99116.19;2026732;80;20235;-75
2021/06/28 14:33:17;;;;;;;1.95;0.65;;;;;;;26.83;53.92;99103.47;2021755;78;21289;-73